Time;durP1;ratioP1;P1;durP2;ratioP2;P2;SDS_P1;SDS_P2;PMS_P1;PMS_P2;Temp;Humidity;BMP_temperature;BMP_pressure;BME280_temperature;BME280_humidity;BME280_pressure;Samples;Min_cycle;Max_cycle;Signal;HPM_P1;HPM_P2
2023/08/18 00:00:54;;;;;;;31.13;29.67;;;;;;;;;;5027641;28;20472;-42
2023/08/18 00:03:21;;;;;;;31.07;29.67;;;;;;;;;;5027002;28;20467;-40
2023/08/18 00:05:49;;;;;;;31.23;29.73;;;;;;;;;;5027423;28;20441;-46
2023/08/18 00:08:17;;;;;;;30.70;29.30;;;;;;;;;;5027106;28;20477;-46
2023/08/18 00:10:44;;;;;;;31.77;30.60;;;;;;;;;;5027450;28;20480;-43
2023/08/18 00:13:12;;;;;;;30.83;29.47;;;;;;;;;;5026300;28;20484;-42
2023/08/18 00:15:39;;;;;;;29.50;28.30;;;;;;;;;;5027213;28;20519;-40
2023/08/18 00:18:08;;;;;;;30.87;29.60;;;;;;;;;;5027580;28;20460;-42
2023/08/18 00:20:36;;;;;;;31.93;30.53;;;;;;;;;;5027206;28;20464;-41
2023/08/18 00:23:04;;;;;;;31.30;30.10;;;;;;;;;;5027455;28;20468;-41
2023/08/18 00:25:31;;;;;;;32.37;31.07;;;;;;;;;;5026674;28;20465;-40
2023/08/18 00:28:00;;;;;;;32.37;31.07;;;;;;;;;;5027047;28;20827;-44
2023/08/18 00:30:28;;;;;;;31.57;30.23;;;;;;;;;;5026895;28;20547;-41
2023/08/18 00:32:56;;;;;;;30.97;29.67;;;;;;;;;;5026074;28;20445;-42
2023/08/18 00:35:24;;;;;;;31.40;30.20;;;;;;;;;;5026350;28;20460;-43
2023/08/18 00:37:52;;;;;;;33.17;31.67;;;;;;;;;;5027189;28;21010;-40
2023/08/18 00:40:20;;;;;;;32.50;31.00;;;;;;;;;;5026657;28;20483;-42
2023/08/18 00:42:47;;;;;;;33.50;31.87;;;;;;;;;;5027032;28;20437;-44
2023/08/18 00:45:15;;;;;;;33.57;32.20;;;;;;;;;;5026361;28;20494;-40
2023/08/18 00:47:43;;;;;;;33.60;32.20;;;;;;;;;;5026532;28;20487;-41
2023/08/18 00:50:12;;;;;;;33.33;31.93;;;;;;;;;;5026940;28;20476;-42
2023/08/18 00:52:41;;;;;;;34.30;32.80;;;;;;;;;;5027128;28;20440;-42
2023/08/18 00:55:10;;;;;;;36.03;34.30;;;;;;;;;;5026381;28;20485;-41
2023/08/18 00:57:38;;;;;;;36.63;34.80;;;;;;;;;;5027147;28;20452;-41
2023/08/18 01:00:06;;;;;;;35.93;34.30;;;;;;;;;;5027331;28;20433;-41
2023/08/18 01:02:34;;;;;;;35.20;33.80;;;;;;;;;;5026516;28;20528;-41
2023/08/18 01:05:02;;;;;;;35.90;34.30;;;;;;;;;;5025196;28;20461;-40
2023/08/18 01:07:30;;;;;;;36.50;34.47;;;;;;;;;;5027126;28;20445;-40
2023/08/18 01:09:59;;;;;;;35.67;34.17;;;;;;;;;;5024108;28;20437;-41
2023/08/18 01:12:31;;;;;;;35.13;33.53;;;;;;;;;;5013401;28;20431;-42
2023/08/18 01:15:05;;;;;;;35.67;33.90;;;;;;;;;;5013295;28;20472;-43
2023/08/18 01:17:36;;;;;;;34.60;33.00;;;;;;;;;;5013726;28;20468;-40
2023/08/18 01:20:05;;;;;;;35.83;34.23;;;;;;;;;;5013523;28;20815;-42
2023/08/18 01:22:33;;;;;;;35.17;33.53;;;;;;;;;;5013514;28;20464;-41
2023/08/18 01:25:03;;;;;;;34.40;32.80;;;;;;;;;;5012832;28;20556;-41
2023/08/18 01:27:31;;;;;;;34.40;32.90;;;;;;;;;;5013429;28;20465;-42
2023/08/18 01:29:58;;;;;;;36.40;34.67;;;;;;;;;;5013153;28;20435;-41
2023/08/18 01:32:27;;;;;;;35.10;33.60;;;;;;;;;;5013298;28;20483;-41
2023/08/18 01:34:55;;;;;;;36.20;34.60;;;;;;;;;;5012897;28;20464;-40
2023/08/18 01:37:23;;;;;;;35.63;34.03;;;;;;;;;;5012804;28;20484;-40
2023/08/18 01:39:51;;;;;;;39.40;37.70;;;;;;;;;;5013104;28;20448;-43
2023/08/18 01:42:20;;;;;;;36.23;34.60;;;;;;;;;;5013382;28;20449;-40
2023/08/18 01:44:48;;;;;;;36.87;35.13;;;;;;;;;;5012006;28;20479;-42
2023/08/18 01:47:15;;;;;;;37.23;35.73;;;;;;;;;;5012742;28;20555;-43
2023/08/18 01:49:43;;;;;;;36.17;34.57;;;;;;;;;;5012903;28;20810;-40
2023/08/18 01:52:11;;;;;;;38.50;36.67;;;;;;;;;;5012417;28;20527;-39
2023/08/18 01:54:38;;;;;;;36.97;35.37;;;;;;;;;;5012562;28;20470;-41
2023/08/18 01:57:06;;;;;;;36.70;35.00;;;;;;;;;;5012796;28;20878;-43
2023/08/18 01:59:35;;;;;;;38.50;36.60;;;;;;;;;;5013004;28;20471;-43
2023/08/18 02:02:02;;;;;;;40.90;38.90;;;;;;;;;;5012697;28;20441;-41
2023/08/18 02:04:30;;;;;;;42.07;40.17;;;;;;;;;;5012325;28;20465;-42
2023/08/18 02:06:57;;;;;;;40.70;38.70;;;;;;;;;;5012453;28;20935;-41
2023/08/18 02:09:25;;;;;;;40.53;38.53;;;;;;;;;;5012692;28;21014;-39
2023/08/18 02:11:52;;;;;;;42.13;40.13;;;;;;;;;;5012270;28;21073;-41
2023/08/18 02:14:20;;;;;;;41.97;39.87;;;;;;;;;;5012279;28;20903;-40
2023/08/18 02:16:49;;;;;;;41.20;39.40;;;;;;;;;;5011684;28;20467;-41
2023/08/18 02:19:16;;;;;;;41.00;39.00;;;;;;;;;;5012158;28;20464;-43
2023/08/18 02:21:43;;;;;;;41.00;39.10;;;;;;;;;;5012513;28;20433;-42
2023/08/18 02:24:11;;;;;;;41.47;39.43;;;;;;;;;;5011741;28;20465;-42
2023/08/18 02:26:39;;;;;;;42.20;40.20;;;;;;;;;;5012165;28;20537;-41
2023/08/18 02:29:06;;;;;;;44.27;42.00;;;;;;;;;;5012582;28;20533;-43
2023/08/18 02:31:34;;;;;;;43.00;41.00;;;;;;;;;;5011937;28;20902;-41
2023/08/18 02:34:03;;;;;;;42.70;40.40;;;;;;;;;;5011960;28;20539;-41
2023/08/18 02:36:30;;;;;;;42.90;40.40;;;;;;;;;;5012444;28;20460;-41
2023/08/18 02:38:57;;;;;;;42.60;40.53;;;;;;;;;;5012030;28;21013;-41
2023/08/18 02:41:25;;;;;;;41.40;39.30;;;;;;;;;;5012190;28;20437;-44
2023/08/18 02:43:52;;;;;;;41.30;39.50;;;;;;;;;;5011742;28;20465;-39
2023/08/18 02:46:20;;;;;;;40.87;38.93;;;;;;;;;;5011591;28;20519;-40
2023/08/18 02:48:47;;;;;;;40.57;38.60;;;;;;;;;;5012252;28;20799;-41
2023/08/18 02:51:16;;;;;;;42.87;41.07;;;;;;;;;;5011426;28;21031;-39
2023/08/18 02:53:48;;;;;;;40.80;39.20;;;;;;;;;;5011299;28;20851;-41
2023/08/18 02:56:16;;;;;;;40.10;38.37;;;;;;;;;;5011772;28;20449;-41
2023/08/18 02:58:43;;;;;;;40.23;38.10;;;;;;;;;;5011783;28;20914;-41
2023/08/18 03:01:11;;;;;;;38.60;37.00;;;;;;;;;;5011859;28;20433;-41
2023/08/18 03:03:39;;;;;;;39.13;37.40;;;;;;;;;;5011290;28;20503;-40
2023/08/18 03:06:08;;;;;;;40.50;38.70;;;;;;;;;;5011725;28;20442;-42
2023/08/18 03:08:39;;;;;;;41.27;39.60;;;;;;;;;;5011739;28;20440;-40
2023/08/18 03:11:06;;;;;;;42.27;40.60;;;;;;;;;;5011415;28;20461;-42
2023/08/18 03:13:34;;;;;;;43.00;40.87;;;;;;;;;;5010384;28;20788;-43
2023/08/18 03:16:04;;;;;;;39.20;37.50;;;;;;;;;;5011339;28;20436;-40
2023/08/18 03:18:32;;;;;;;41.70;39.80;;;;;;;;;;5011805;28;20469;-43
2023/08/18 03:21:00;;;;;;;42.20;40.50;;;;;;;;;;5011374;28;20472;-39
2023/08/18 03:23:28;;;;;;;40.80;39.00;;;;;;;;;;5010653;28;20564;-40
2023/08/18 03:26:03;;;;;;;42.20;40.20;;;;;;;;;;5011230;28;20977;-38
2023/08/18 03:28:32;;;;;;;40.77;39.17;;;;;;;;;;5011187;28;20455;-40
2023/08/18 03:31:01;;;;;;;42.00;40.20;;;;;;;;;;5011328;28;20441;-43
2023/08/18 03:33:29;;;;;;;43.53;41.40;;;;;;;;;;5010686;28;22723;-42
2023/08/18 03:35:57;;;;;;;44.00;41.90;;;;;;;;;;5011057;28;20451;-39
2023/08/18 03:38:24;;;;;;;41.93;39.73;;;;;;;;;;5011068;28;20441;-41
2023/08/18 03:40:58;;;;;;;42.43;40.20;;;;;;;;;;5011548;28;20434;-42
2023/08/18 03:43:27;;;;;;;41.87;40.07;;;;;;;;;;5010906;28;20464;-40
2023/08/18 03:45:54;;;;;;;42.33;40.40;;;;;;;;;;5011427;28;20441;-40
2023/08/18 03:48:22;;;;;;;42.97;41.10;;;;;;;;;;5011379;28;20464;-41
2023/08/18 03:50:49;;;;;;;42.73;40.30;;;;;;;;;;5010877;28;20468;-42
2023/08/18 03:53:17;;;;;;;41.50;39.80;;;;;;;;;;5010497;28;20500;-40
2023/08/18 03:55:44;;;;;;;41.57;39.80;;;;;;;;;;5011221;28;20433;-39
2023/08/18 03:58:12;;;;;;;44.60;42.37;;;;;;;;;;5011041;28;20994;-40
2023/08/18 04:00:41;;;;;;;42.13;40.33;;;;;;;;;;5010958;28;20433;-39
2023/08/18 04:03:09;;;;;;;42.97;40.90;;;;;;;;;;5010724;28;20459;-39
2023/08/18 04:05:36;;;;;;;41.93;39.87;;;;;;;;;;5010817;28;20487;-41
2023/08/18 04:08:04;;;;;;;42.60;40.40;;;;;;;;;;5011074;28;20514;-38
2023/08/18 04:10:31;;;;;;;45.57;43.40;;;;;;;;;;5010836;28;21002;-41
2023/08/18 04:12:59;;;;;;;45.60;43.60;;;;;;;;;;5010808;28;20472;-39
2023/08/18 04:15:26;;;;;;;45.53;43.53;;;;;;;;;;5009598;28;20830;-39
2023/08/18 04:17:55;;;;;;;42.27;40.47;;;;;;;;;;5010571;28;20457;-40
2023/08/18 04:20:23;;;;;;;44.73;42.83;;;;;;;;;;5010643;28;20957;-40
2023/08/18 04:22:50;;;;;;;42.50;40.83;;;;;;;;;;5010684;28;21004;-40
2023/08/18 04:25:18;;;;;;;44.97;42.90;;;;;;;;;;5027702;28;21064;-40
2023/08/18 04:27:45;;;;;;;42.30;40.30;;;;;;;;;;5030396;28;20499;-40
2023/08/18 04:30:13;;;;;;;40.80;39.20;;;;;;;;;;5030535;28;20519;-39
2023/08/18 04:32:41;;;;;;;41.87;39.90;;;;;;;;;;5029781;28;20517;-38
2023/08/18 04:35:10;;;;;;;38.60;36.90;;;;;;;;;;5030117;28;20467;-39
2023/08/18 04:37:38;;;;;;;37.77;36.20;;;;;;;;;;5030477;28;20459;-41
2023/08/18 04:40:06;;;;;;;38.17;36.60;;;;;;;;;;5030484;28;20431;-40
2023/08/18 04:42:33;;;;;;;38.90;36.90;;;;;;;;;;5033808;28;20783;-40
2023/08/18 04:45:01;;;;;;;38.20;36.50;;;;;;;;;;5033425;28;20558;-38
2023/08/18 04:47:29;;;;;;;37.57;35.73;;;;;;;;;;5033550;28;20475;-40
2023/08/18 04:49:56;;;;;;;37.67;36.23;;;;;;;;;;5033672;28;20519;-41
2023/08/18 04:52:25;;;;;;;38.60;37.00;;;;;;;;;;5033837;28;20464;-40
2023/08/18 04:54:53;;;;;;;36.70;35.20;;;;;;;;;;5033237;28;20979;-39
2023/08/18 04:57:20;;;;;;;36.50;34.90;;;;;;;;;;5033782;28;20862;-40
2023/08/18 04:59:48;;;;;;;38.30;36.80;;;;;;;;;;5033325;28;20468;-40
2023/08/18 05:02:15;;;;;;;38.03;36.40;;;;;;;;;;5033635;28;20428;-39
2023/08/18 05:04:43;;;;;;;38.00;36.47;;;;;;;;;;5033076;28;21000;-41
2023/08/18 05:07:10;;;;;;;37.83;36.23;;;;;;;;;;5033407;28;20869;-41
2023/08/18 05:09:39;;;;;;;38.90;37.20;;;;;;;;;;5033485;28;20432;-40
2023/08/18 05:12:08;;;;;;;38.40;36.43;;;;;;;;;;5033101;28;20486;-39
2023/08/18 05:14:35;;;;;;;38.57;36.87;;;;;;;;;;5032432;28;20816;-40
2023/08/18 05:17:03;;;;;;;37.47;35.87;;;;;;;;;;5033150;28;20539;-41
2023/08/18 05:19:30;;;;;;;36.83;35.40;;;;;;;;;;5033001;28;20436;-39
2023/08/18 05:21:58;;;;;;;37.07;35.47;;;;;;;;;;5033043;28;20440;-39
2023/08/18 05:24:25;;;;;;;37.17;35.57;;;;;;;;;;5032528;28;20455;-39
2023/08/18 05:26:55;;;;;;;38.23;36.27;;;;;;;;;;5032805;28;21033;-40
2023/08/18 05:29:22;;;;;;;36.33;34.63;;;;;;;;;;5033323;28;20440;-40
2023/08/18 05:31:50;;;;;;;35.67;34.27;;;;;;;;;;5032993;28;20447;-38
2023/08/18 05:34:19;;;;;;;37.40;35.70;;;;;;;;;;5032768;28;20459;-38
2023/08/18 05:36:47;;;;;;;37.00;35.40;;;;;;;;;;5032977;28;20790;-41
2023/08/18 05:39:15;;;;;;;37.60;35.90;;;;;;;;;;5032905;28;20515;-40
2023/08/18 05:41:42;;;;;;;38.37;36.10;;;;;;;;;;5032696;28;20574;-38
2023/08/18 05:44:11;;;;;;;37.93;36.33;;;;;;;;;;5032469;28;20468;-41
2023/08/18 05:46:38;;;;;;;37.97;36.37;;;;;;;;;;5032599;28;20468;-40
2023/08/18 05:49:06;;;;;;;35.73;34.30;;;;;;;;;;5032441;28;20467;-44
2023/08/18 05:51:33;;;;;;;39.10;37.40;;;;;;;;;;5031866;28;20432;-40
2023/08/18 05:54:03;;;;;;;39.97;38.00;;;;;;;;;;5031917;28;20472;-40
2023/08/18 05:56:31;;;;;;;38.17;36.40;;;;;;;;;;5032376;28;20454;-40
2023/08/18 05:58:59;;;;;;;39.50;37.50;;;;;;;;;;5032618;28;20527;-41
2023/08/18 06:01:28;;;;;;;38.93;37.43;;;;;;;;;;5032182;28;20786;-39
2023/08/18 06:03:55;;;;;;;37.90;36.20;;;;;;;;;;5032086;28;20468;-41
2023/08/18 06:06:23;;;;;;;40.10;38.30;;;;;;;;;;5032208;28;20518;-39
2023/08/18 06:08:50;;;;;;;40.93;38.93;;;;;;;;;;5032109;28;20880;-40
2023/08/18 06:11:18;;;;;;;40.07;37.90;;;;;;;;;;5032277;28;20428;-42
2023/08/18 06:13:46;;;;;;;38.53;36.70;;;;;;;;;;5031361;28;20491;-41
2023/08/18 06:16:13;;;;;;;38.63;37.00;;;;;;;;;;5032370;28;20454;-41
2023/08/18 06:18:42;;;;;;;38.90;37.07;;;;;;;;;;5032321;28;20436;-41
2023/08/18 06:21:09;;;;;;;39.30;37.70;;;;;;;;;;5032126;28;20436;-41
2023/08/18 06:23:37;;;;;;;39.23;37.43;;;;;;;;;;5031424;28;20470;-42
2023/08/18 06:26:04;;;;;;;38.70;37.00;;;;;;;;;;5032113;28;20438;-43
2023/08/18 06:28:32;;;;;;;38.80;37.10;;;;;;;;;;5032307;28;20526;-40
2023/08/18 06:31:03;;;;;;;36.13;34.43;;;;;;;;;;5031746;28;20959;-41
2023/08/18 06:33:31;;;;;;;37.00;35.20;;;;;;;;;;5030935;28;20479;-41
2023/08/18 06:35:59;;;;;;;39.60;37.90;;;;;;;;;;5031647;28;20470;-40
2023/08/18 06:38:27;;;;;;;37.60;36.17;;;;;;;;;;5031657;28;20475;-40
2023/08/18 06:40:54;;;;;;;38.60;36.90;;;;;;;;;;5031915;28;20522;-40
2023/08/18 06:43:22;;;;;;;38.47;36.77;;;;;;;;;;5030504;28;20876;-40
2023/08/18 06:45:50;;;;;;;37.50;35.87;;;;;;;;;;5031007;28;20447;-40
2023/08/18 06:48:17;;;;;;;35.97;34.47;;;;;;;;;;5031517;28;20466;-42
2023/08/18 06:50:45;;;;;;;35.63;34.23;;;;;;;;;;5031787;28;20431;-40
2023/08/18 06:53:14;;;;;;;37.10;35.60;;;;;;;;;;5030950;28;20477;-41
2023/08/18 06:55:41;;;;;;;37.43;35.70;;;;;;;;;;5031491;28;20435;-42
2023/08/18 06:58:27;;;;;;;38.87;36.63;;;;;;;;;;5031339;28;20457;-42
2023/08/18 07:00:55;;;;;;;37.23;35.63;;;;;;;;;;5031548;28;20443;-40
2023/08/18 07:03:22;;;;;;;37.73;35.90;;;;;;;;;;5030367;28;20436;-40
2023/08/18 07:05:50;;;;;;;38.90;37.03;;;;;;;;;;5031255;28;20463;-41
2023/08/18 07:08:19;;;;;;;39.07;37.10;;;;;;;;;;5031073;28;20456;-41
2023/08/18 07:10:46;;;;;;;38.73;37.13;;;;;;;;;;5031184;28;20474;-39
2023/08/18 07:13:14;;;;;;;39.43;37.50;;;;;;;;;;5030703;28;20979;-42
2023/08/18 07:15:41;;;;;;;38.57;36.70;;;;;;;;;;5030972;28;20437;-39
2023/08/18 07:18:09;;;;;;;39.87;37.97;;;;;;;;;;5030742;28;20452;-39
2023/08/18 07:20:36;;;;;;;38.97;37.17;;;;;;;;;;5030812;28;20538;-40
2023/08/18 07:23:04;;;;;;;41.90;39.77;;;;;;;;;;5030923;28;20421;-40
2023/08/18 07:25:33;;;;;;;41.07;39.07;;;;;;;;;;5029245;28;20498;-41
2023/08/18 07:28:00;;;;;;;42.50;40.47;;;;;;;;;;5030930;28;20456;-40
2023/08/18 07:30:28;;;;;;;42.73;40.50;;;;;;;;;;5031197;28;20443;-42
2023/08/18 07:32:56;;;;;;;40.67;38.87;;;;;;;;;;5030542;28;20955;-43
2023/08/18 07:35:24;;;;;;;41.30;39.10;;;;;;;;;;5030979;28;20467;-42
2023/08/18 07:37:51;;;;;;;40.87;38.50;;;;;;;;;;5030562;28;20444;-40
2023/08/18 07:40:22;;;;;;;39.33;37.53;;;;;;;;;;5031004;28;20546;-42
2023/08/18 07:42:51;;;;;;;40.67;38.40;;;;;;;;;;5029938;28;20522;-42
2023/08/18 07:45:18;;;;;;;42.07;39.70;;;;;;;;;;5029854;28;20525;-41
2023/08/18 07:47:46;;;;;;;39.57;37.40;;;;;;;;;;5030179;28;20460;-42
2023/08/18 07:50:14;;;;;;;40.50;38.20;;;;;;;;;;5030862;28;20436;-40
2023/08/18 07:52:42;;;;;;;40.53;38.53;;;;;;;;;;5030485;28;21228;-39
2023/08/18 07:55:10;;;;;;;42.00;40.00;;;;;;;;;;5030234;28;20500;-42
2023/08/18 07:57:38;;;;;;;43.50;41.23;;;;;;;;;;5030437;28;20490;-41
2023/08/18 08:00:10;;;;;;;41.40;39.30;;;;;;;;;;5030636;28;20459;-40
2023/08/18 08:02:38;;;;;;;41.37;39.03;;;;;;;;;;5030759;28;20427;-40
2023/08/18 08:05:07;;;;;;;40.73;38.57;;;;;;;;;;5030063;28;20492;-40
2023/08/18 08:07:35;;;;;;;40.13;38.23;;;;;;;;;;5030805;28;20452;-39
2023/08/18 08:10:03;;;;;;;40.23;38.37;;;;;;;;;;5030649;28;20441;-40
2023/08/18 08:12:31;;;;;;;38.37;36.47;;;;;;;;;;5030581;28;20478;-41
2023/08/18 08:14:59;;;;;;;41.07;38.67;;;;;;;;;;5031194;28;20476;-41
2023/08/18 08:17:29;;;;;;;38.80;36.70;;;;;;;;;;5038422;28;20455;-42
2023/08/18 08:19:58;;;;;;;42.47;39.97;;;;;;;;;;5047346;28;20445;-39
2023/08/18 08:22:25;;;;;;;39.77;38.00;;;;;;;;;;5046930;28;20459;-39
2023/08/18 08:24:54;;;;;;;40.03;37.90;;;;;;;;;;5046443;28;20467;-40
2023/08/18 08:27:22;;;;;;;41.03;38.93;;;;;;;;;;5046873;28;20447;-45
2023/08/18 08:29:51;;;;;;;41.17;38.73;;;;;;;;;;5046315;28;20432;-41
2023/08/18 08:32:19;;;;;;;40.37;38.23;;;;;;;;;;5044908;28;20526;-42
2023/08/18 08:34:50;;;;;;;43.53;40.80;;;;;;;;;;5042900;28;20570;-42
2023/08/18 08:37:17;;;;;;;42.00;39.90;;;;;;;;;;5042944;28;20538;-41
2023/08/18 08:39:45;;;;;;;43.00;40.70;;;;;;;;;;5044678;28;20460;-43
2023/08/18 08:42:14;;;;;;;39.40;37.47;;;;;;;;;;5044248;28;20432;-43
2023/08/18 08:44:42;;;;;;;40.90;38.63;;;;;;;;;;5042983;28;20463;-41
2023/08/18 08:47:11;;;;;;;41.50;39.50;;;;;;;;;;5043557;28;20459;-42
2023/08/18 08:49:44;;;;;;;38.10;36.30;;;;;;;;;;5043562;28;20491;-40
2023/08/18 08:52:16;;;;;;;40.17;38.17;;;;;;;;;;5043357;28;20502;-40
2023/08/18 08:54:47;;;;;;;43.00;40.70;;;;;;;;;;5042992;28;20471;-45
2023/08/18 08:57:14;;;;;;;41.97;39.90;;;;;;;;;;5042856;28;20451;-40
2023/08/18 08:59:42;;;;;;;41.40;39.40;;;;;;;;;;5042932;28;20448;-45
2023/08/18 09:02:09;;;;;;;42.10;39.83;;;;;;;;;;5042477;28;20432;-40
2023/08/18 09:04:37;;;;;;;42.70;40.40;;;;;;;;;;5042296;28;20487;-41
2023/08/18 09:07:04;;;;;;;40.60;38.10;;;;;;;;;;5044375;28;20451;-40
2023/08/18 09:09:33;;;;;;;42.60;40.10;;;;;;;;;;5045203;28;20447;-42
2023/08/18 09:12:06;;;;;;;42.90;40.70;;;;;;;;;;5045086;28;20504;-40
2023/08/18 09:14:34;;;;;;;42.90;40.67;;;;;;;;;;5044206;28;20836;-42
2023/08/18 09:17:01;;;;;;;41.80;39.37;;;;;;;;;;5045381;28;20459;-43
2023/08/18 09:19:29;;;;;;;42.17;40.07;;;;;;;;;;5044650;28;20446;-45
2023/08/18 09:21:57;;;;;;;41.33;39.17;;;;;;;;;;5044847;28;20439;-40
2023/08/18 09:24:25;;;;;;;41.53;39.40;;;;;;;;;;5045096;28;20475;-41
2023/08/18 09:26:54;;;;;;;40.97;39.00;;;;;;;;;;5043498;28;20455;-41
2023/08/18 09:29:21;;;;;;;42.47;39.87;;;;;;;;;;5044410;28;20475;-43
2023/08/18 09:31:48;;;;;;;40.70;38.60;;;;;;;;;;5044287;28;20456;-41
2023/08/18 09:34:19;;;;;;;39.60;37.77;;;;;;;;;;5044525;28;20722;-42
2023/08/18 09:36:51;;;;;;;42.67;40.23;;;;;;;;;;5044311;28;20518;-46
2023/08/18 09:39:19;;;;;;;41.43;39.43;;;;;;;;;;5043527;28;20937;-42
2023/08/18 09:41:47;;;;;;;41.73;39.47;;;;;;;;;;5044096;28;20466;-42
2023/08/18 09:44:16;;;;;;;43.87;41.40;;;;;;;;;;5044369;28;20463;-39
2023/08/18 09:46:47;;;;;;;42.37;40.20;;;;;;;;;;5044020;28;20540;-41
2023/08/18 09:49:17;;;;;;;40.93;38.83;;;;;;;;;;5044548;28;20536;-40
2023/08/18 09:51:46;;;;;;;43.13;40.97;;;;;;;;;;5044456;28;20427;-43
2023/08/18 09:54:14;;;;;;;42.83;40.53;;;;;;;;;;5043966;28;20528;-41
2023/08/18 09:56:44;;;;;;;42.30;39.87;;;;;;;;;;5044927;28;20503;-43
2023/08/18 09:59:15;;;;;;;41.80;39.83;;;;;;;;;;5043805;28;20431;-41
2023/08/18 10:01:45;;;;;;;43.77;41.50;;;;;;;;;;5043867;28;20975;-43
2023/08/18 10:04:12;;;;;;;44.90;42.70;;;;;;;;;;5043951;28;20463;-40
2023/08/18 10:06:41;;;;;;;43.50;41.40;;;;;;;;;;5045151;28;20447;-41
2023/08/18 10:09:09;;;;;;;43.23;41.23;;;;;;;;;;5043545;28;20522;-41
2023/08/18 10:11:37;;;;;;;42.37;40.17;;;;;;;;;;5044421;28;20431;-40
2023/08/18 10:14:19;;;;;;;40.93;39.03;;;;;;;;;;5044228;28;20460;-39
2023/08/18 10:16:49;;;;;;;40.27;38.30;;;;;;;;;;5045011;28;20818;-40
2023/08/18 10:19:16;;;;;;;41.30;39.40;;;;;;;;;;5045080;28;20518;-40
2023/08/18 10:21:44;;;;;;;41.37;39.47;;;;;;;;;;5043772;28;20474;-40
2023/08/18 10:24:12;;;;;;;46.53;43.80;;;;;;;;;;5044034;28;20490;-47
2023/08/18 10:26:42;;;;;;;44.87;42.73;;;;;;;;;;5044399;28;20486;-40
2023/08/18 10:29:16;;;;;;;44.33;42.13;;;;;;;;;;5044814;28;20500;-40
2023/08/18 10:32:07;;;;;;;42.97;40.27;;;;;;;;;;5044247;28;20439;-41
2023/08/18 10:34:36;;;;;;;44.77;42.53;;;;;;;;;;5043582;28;20546;-45
2023/08/18 10:37:04;;;;;;;45.70;43.40;;;;;;;;;;5044323;28;20541;-40
2023/08/18 10:39:36;;;;;;;44.40;42.00;;;;;;;;;;5043336;28;20439;-43
2023/08/18 10:42:09;;;;;;;45.97;43.17;;;;;;;;;;5044002;28;20420;-43
2023/08/18 10:44:36;;;;;;;45.80;43.67;;;;;;;;;;5044334;28;20523;-42
2023/08/18 10:47:25;;;;;;;44.73;42.07;;;;;;;;;;5044812;28;21054;-40
2023/08/18 10:49:53;;;;;;;41.70;39.40;;;;;;;;;;5042227;28;21066;-40
2023/08/18 10:52:21;;;;;;;43.77;41.63;;;;;;;;;;5043101;28;20960;-41
2023/08/18 10:54:48;;;;;;;41.47;39.37;;;;;;;;;;5042042;28;20468;-42
2023/08/18 10:57:16;;;;;;;42.27;40.17;;;;;;;;;;5042226;28;20554;-45
2023/08/18 10:59:43;;;;;;;42.90;40.60;;;;;;;;;;5042391;28;20464;-42
2023/08/18 11:02:13;;;;;;;41.23;39.20;;;;;;;;;;5042373;28;20432;-41
2023/08/18 11:04:40;;;;;;;41.50;39.20;;;;;;;;;;5041632;28;20519;-42
2023/08/18 11:07:08;;;;;;;40.30;38.30;;;;;;;;;;5041819;28;20455;-43
2023/08/18 11:09:37;;;;;;;39.70;37.80;;;;;;;;;;5042090;28;20435;-46
2023/08/18 11:12:05;;;;;;;40.53;38.40;;;;;;;;;;5041826;28;20503;-41
2023/08/18 11:14:32;;;;;;;41.33;39.53;;;;;;;;;;5041599;28;20490;-40
2023/08/18 11:17:00;;;;;;;43.53;41.07;;;;;;;;;;5042058;28;20488;-42
2023/08/18 11:19:28;;;;;;;41.87;39.60;;;;;;;;;;5042188;28;20522;-41
2023/08/18 11:21:56;;;;;;;42.53;40.40;;;;;;;;;;5041744;28;20485;-41
2023/08/18 11:24:25;;;;;;;42.40;40.30;;;;;;;;;;5042787;28;20555;-40
2023/08/18 11:26:53;;;;;;;42.03;40.10;;;;;;;;;;5043416;28;20787;-43
2023/08/18 11:29:20;;;;;;;41.50;39.70;;;;;;;;;;5043586;28;20435;-40
2023/08/18 11:31:48;;;;;;;42.77;40.60;;;;;;;;;;5044133;28;20431;-43
2023/08/18 11:34:16;;;;;;;42.20;40.00;;;;;;;;;;5042037;28;20467;-43
2023/08/18 11:36:45;;;;;;;41.63;39.83;;;;;;;;;;5043050;28;21086;-42
2023/08/18 11:39:12;;;;;;;42.90;40.70;;;;;;;;;;5044674;28;20438;-40
2023/08/18 11:41:41;;;;;;;41.90;40.00;;;;;;;;;;5042936;28;20489;-41
2023/08/18 11:44:10;;;;;;;43.30;40.90;;;;;;;;;;5042887;28;20483;-41
2023/08/18 11:46:38;;;;;;;41.77;39.57;;;;;;;;;;5042365;28;20466;-47
2023/08/18 11:49:12;;;;;;;43.20;41.10;;;;;;;;;;5041341;28;20443;-44
2023/08/18 11:54:35;;;;;;;44.93;42.30;;;;;;;21.66;100.00;101965.81;5127690;27;20546;-39
2023/08/18 11:57:05;;;;;;;44.27;41.80;;;;;;;21.71;100.00;101967.84;5102092;28;20892;-39
2023/08/18 11:59:33;;;;;;;43.77;41.07;;;;;;;21.82;100.00;101975.09;5100391;28;20562;-39
2023/08/18 12:02:04;;;;;;;42.53;40.20;;;;;;;21.85;100.00;101974.63;5101468;28;20428;-39
2023/08/18 12:04:34;;;;;;;43.03;40.73;;;;;;;21.60;100.00;101968.66;5101225;28;20464;-42
2023/08/18 12:07:02;;;;;;;42.60;39.83;;;;;;;21.57;100.00;101961.84;5102660;28;20520;-42
2023/08/18 12:09:29;;;;;;;42.33;39.87;;;;;;;21.60;100.00;101969.50;5101792;28;20432;-39
2023/08/18 12:11:58;;;;;;;45.50;42.90;;;;;;;21.61;100.00;101967.63;5100708;28;20486;-40
2023/08/18 12:14:26;;;;;;;45.20;42.40;;;;;;;21.75;100.00;101972.53;5101591;28;20457;-40
2023/08/18 12:16:54;;;;;;;44.90;42.30;;;;;;;21.70;100.00;101971.59;5100848;28;20509;-40
2023/08/18 12:19:21;;;;;;;41.60;39.40;;;;;;;21.78;100.00;101971.22;5101818;28;20459;-39
2023/08/18 12:21:49;;;;;;;42.47;39.97;;;;;;;21.87;100.00;101970.59;5101434;28;20433;-40
2023/08/18 12:24:17;;;;;;;40.87;38.63;;;;;;;21.93;100.00;101963.41;5101586;28;20457;-39
2023/08/18 12:26:44;;;;;;;44.93;42.13;;;;;;;21.84;100.00;101962.94;5099107;28;20891;-43
2023/08/18 12:29:13;;;;;;;44.67;42.37;;;;;;;21.75;100.00;101968.97;5099178;28;20433;-40
2023/08/18 12:31:41;;;;;;;45.20;42.90;;;;;;;21.89;100.00;101967.69;5098660;28;20432;-44
2023/08/18 12:34:09;;;;;;;45.70;43.23;;;;;;;21.83;100.00;101966.72;5098301;28;20559;-42
2023/08/18 12:36:37;;;;;;;45.67;43.00;;;;;;;21.67;100.00;101958.50;5096522;28;20457;-41
2023/08/18 12:39:08;;;;;;;44.57;41.33;;;;;;;21.91;100.00;101963.66;5098778;28;20437;-41
2023/08/18 12:41:36;;;;;;;43.33;41.03;;;;;;;21.98;100.00;101961.59;5099080;28;20431;-43
2023/08/18 12:44:08;;;;;;;45.60;43.10;;;;;;;22.03;100.00;101955.47;5098524;28;20897;-38
2023/08/18 12:46:38;;;;;;;41.03;39.03;;;;;;;22.18;100.00;101953.03;5099039;28;20503;-38
2023/08/18 12:49:06;;;;;;;42.90;40.60;;;;;;;22.28;100.00;101955.91;5098667;28;20486;-38
2023/08/18 12:51:33;;;;;;;42.60;40.20;;;;;;;22.15;100.00;101958.13;5088818;28;21172;-44
2023/08/18 12:54:01;;;;;;;44.47;42.17;;;;;;;22.14;100.00;101953.75;5077472;28;20489;-38
2023/08/18 12:56:29;;;;;;;42.93;40.80;;;;;;;22.29;100.00;101957.56;5089699;28;20524;-39
2023/08/18 12:58:56;;;;;;;42.27;39.83;;;;;;;22.54;100.00;101955.31;5091808;28;20433;-39
2023/08/18 13:01:24;;;;;;;41.50;38.10;;;;;;;22.59;100.00;101949.94;5089976;28;20820;-38
2023/08/18 13:03:53;;;;;;;44.40;42.00;;;;;;;22.60;100.00;101948.88;5101568;28;20854;-39
2023/08/18 13:06:21;;;;;;;43.13;40.43;;;;;;;22.55;100.00;101948.78;5104083;28;20460;-39
2023/08/18 13:08:49;;;;;;;44.87;42.10;;;;;;;22.44;100.00;101944.25;5100950;28;20500;-40
2023/08/18 13:11:18;;;;;;;44.27;41.87;;;;;;;22.43;100.00;101955.38;5096744;28;20467;-42
2023/08/18 13:13:46;;;;;;;42.30;39.90;;;;;;;22.45;100.00;101948.63;5102419;28;20493;-39
2023/08/18 13:16:13;;;;;;;40.97;38.97;;;;;;;22.45;100.00;101940.47;5098072;28;20468;-40
2023/08/18 13:18:41;;;;;;;43.13;40.93;;;;;;;22.46;100.00;101938.59;5090630;28;20438;-40
2023/08/18 13:21:11;;;;;;;41.40;39.30;;;;;;;22.63;100.00;101935.84;5085330;28;20460;-44
2023/08/18 13:23:38;;;;;;;39.73;37.67;;;;;;;22.86;100.00;101939.25;5086544;28;20533;-38
2023/08/18 13:26:06;;;;;;;37.10;35.30;;;;;;;23.02;100.00;101923.97;5086165;28;20453;-40
2023/08/18 13:28:40;;;;;;;37.90;35.90;;;;;;;23.14;100.00;101939.13;5086789;28;20430;-41
2023/08/18 13:31:08;;;;;;;38.30;36.33;;;;;;;23.14;100.00;101932.84;5084666;28;20512;-41
2023/08/18 13:33:36;;;;;;;38.77;36.93;;;;;;;23.05;100.00;101928.91;5083324;28;20537;-40
2023/08/18 13:36:04;;;;;;;38.70;36.63;;;;;;;23.10;100.00;101934.44;5082904;28;20497;-42
2023/08/18 13:38:33;;;;;;;41.60;39.13;;;;;;;22.95;100.00;101940.47;5082940;28;20433;-42
2023/08/18 13:41:02;;;;;;;41.00;38.70;;;;;;;23.05;100.00;101940.63;5081687;28;20491;-39
2023/08/18 13:43:30;;;;;;;39.03;37.23;;;;;;;23.36;100.00;101936.41;5081121;28;20457;-42
2023/08/18 13:45:59;;;;;;;39.03;36.70;;;;;;;23.40;100.00;101934.88;5080818;28;20904;-40
2023/08/18 13:48:26;;;;;;;35.30;33.70;;;;;;;23.33;100.00;101926.03;5082884;28;20521;-39
2023/08/18 13:50:55;;;;;;;33.00;31.50;;;;;;;23.41;100.00;101928.34;5082244;28;20426;-42